DAL864 KLAX-MMMX
Flight info
| Callsign | DAL864 |
|---|---|
| Flight time | 3h 5m |
| Altitude | 33000 |
| Route | PNDAH2 TCATE DCT PPE UJ7 LIDUK/N0466F350 UJ7 HMO UT18 NABAS UT49 DGO UJ5 ZCL UT130 DARAN DARAN3A |
| Aircraft | A321/M-SDE3FGHIRWY/LB1 |
Departure
| Time | 2026-05-05 13:30 |
|---|---|
| Airport | Los Angeles International Airport (KLAX) |
Arrival
| Time | 2026-05-05 16:36 |
|---|---|
| Airport | Mexico City Benito Juárez International Airport (MMMX) |
| Time | Latitude | Longitude | Altitude | Speed | Heading |
|---|---|---|---|---|---|
| 2026-05-05 12:56 | 33.94675 | -118.41032 | 96 ft | 0 kts | 188° |
| 2026-05-05 13:22 | 33.94687 | -118.41030 | 95 ft | 4 kts | 183° |
| 2026-05-05 13:22 | 33.94714 | -118.41032 | 96 ft | 4 kts | 159° |
| 2026-05-05 13:22 | 33.94732 | -118.41048 | 95 ft | 4 kts | 102° |
| 2026-05-05 13:23 | 33.94734 | -118.41057 | 95 ft | 0 kts | 83° |
| 2026-05-05 13:25 | 33.94734 | -118.41055 | 97 ft | 1 kts | 83° |
| 2026-05-05 13:25 | 33.94735 | -118.41040 | 98 ft | 3 kts | 83° |
| 2026-05-05 13:26 | 33.94739 | -118.41005 | 97 ft | 7 kts | 83° |
| 2026-05-05 13:26 | 33.94751 | -118.40915 | 98 ft | 14 kts | 69° |
| 2026-05-05 13:26 | 33.94829 | -118.40855 | 101 ft | 15 kts | 55° |
| 2026-05-05 13:26 | 33.94851 | -118.40714 | 100 ft | 17 kts | 83° |
| 2026-05-05 13:27 | 33.94865 | -118.40576 | 100 ft | 16 kts | 83° |
| 2026-05-05 13:27 | 33.94878 | -118.40451 | 102 ft | 15 kts | 83° |
| 2026-05-05 13:27 | 33.94890 | -118.40337 | 101 ft | 13 kts | 83° |
| 2026-05-05 13:27 | 33.94903 | -118.40206 | 102 ft | 16 kts | 83° |
| 2026-05-05 13:28 | 33.94916 | -118.40078 | 100 ft | 15 kts | 83° |
| 2026-05-05 13:28 | 33.94930 | -118.39962 | 99 ft | 13 kts | 73° |
| 2026-05-05 13:28 | 33.94978 | -118.39913 | 104 ft | 5 kts | 12° |
| 2026-05-05 13:28 | 33.94987 | -118.39912 | 105 ft | 0 kts | 6° |
| 2026-05-05 13:29 | 33.94999 | -118.39911 | 107 ft | 4 kts | 1° |
| 2026-05-05 13:29 | 33.95041 | -118.39933 | 109 ft | 11 kts | 300° |
| 2026-05-05 13:29 | 33.95029 | -118.40082 | 109 ft | 26 kts | 262° |
| 2026-05-05 13:29 | 33.94976 | -118.40586 | 108 ft | 93 kts | 263° |
| 2026-05-05 13:30 | 33.94868 | -118.41588 | 108 ft | 143 kts | 264° |
| 2026-05-05 13:30 | 33.94756 | -118.42884 | 333 ft | 165 kts | 263° |
| 2026-05-05 13:30 | 33.94628 | -118.44290 | 849 ft | 173 kts | 263° |
| 2026-05-05 13:30 | 33.94495 | -118.45540 | 1382 ft | 175 kts | 263° |
| 2026-05-05 13:31 | 33.94360 | -118.47001 | 1981 ft | 175 kts | 266° |
| 2026-05-05 13:31 | 33.94284 | -118.48495 | 2328 ft | 183 kts | 268° |
| 2026-05-05 13:31 | 33.94238 | -118.50055 | 2676 ft | 190 kts | 269° |
| 2026-05-05 13:31 | 33.94190 | -118.51692 | 2984 ft | 201 kts | 268° |
| 2026-05-05 13:32 | 33.94139 | -118.53406 | 3352 ft | 208 kts | 268° |
| 2026-05-05 13:32 | 33.94079 | -118.55168 | 3743 ft | 214 kts | 267° |
| 2026-05-05 13:32 | 33.93929 | -118.57012 | 3983 ft | 232 kts | 263° |
| 2026-05-05 13:32 | 33.93695 | -118.59031 | 4274 ft | 253 kts | 263° |
| 2026-05-05 13:33 | 33.93364 | -118.61147 | 4880 ft | 261 kts | 249° |
| 2026-05-05 13:33 | 33.92310 | -118.62920 | 5603 ft | 266 kts | 220° |
| 2026-05-05 13:33 | 33.90667 | -118.63956 | 6365 ft | 270 kts | 197° |
| 2026-05-05 13:33 | 33.88794 | -118.64177 | 7088 ft | 273 kts | 178° |
| 2026-05-05 13:34 | 33.86885 | -118.64008 | 7771 ft | 277 kts | 177° |
| 2026-05-05 13:34 | 33.84962 | -118.63676 | 8433 ft | 282 kts | 166° |
| 2026-05-05 13:34 | 33.83116 | -118.62820 | 9080 ft | 288 kts | 154° |
| 2026-05-05 13:34 | 33.81398 | -118.61520 | 9679 ft | 296 kts | 147° |
| 2026-05-05 13:35 | 33.79682 | -118.60130 | 10291 ft | 299 kts | 147° |
| 2026-05-05 13:35 | 33.77904 | -118.58692 | 10518 ft | 318 kts | 147° |
| 2026-05-05 13:35 | 33.76002 | -118.57166 | 10649 ft | 339 kts | 148° |
| 2026-05-05 13:35 | 33.73981 | -118.55544 | 10774 ft | 359 kts | 147° |
| 2026-05-05 13:36 | 33.71886 | -118.53777 | 10893 ft | 378 kts | 142° |
| 2026-05-05 13:36 | 33.70022 | -118.51624 | 11125 ft | 393 kts | 131° |
| 2026-05-05 13:36 | 33.68362 | -118.48846 | 11634 ft | 399 kts | 121° |
| 2026-05-05 13:36 | 33.67078 | -118.45879 | 12197 ft | 402 kts | 117° |
| 2026-05-05 13:37 | 33.65801 | -118.42879 | 12769 ft | 405 kts | 118° |
| 2026-05-05 13:37 | 33.64533 | -118.39937 | 13334 ft | 407 kts | 118° |
| 2026-05-05 13:37 | 33.63221 | -118.36911 | 13896 ft | 410 kts | 118° |
| 2026-05-05 13:37 | 33.61898 | -118.33866 | 14387 ft | 413 kts | 118° |
| 2026-05-05 13:38 | 33.60568 | -118.30804 | 14864 ft | 415 kts | 118° |
| 2026-05-05 13:38 | 33.59234 | -118.27726 | 15338 ft | 417 kts | 118° |
| 2026-05-05 13:38 | 33.57891 | -118.24630 | 15824 ft | 420 kts | 118° |
| 2026-05-05 13:38 | 33.56543 | -118.21515 | 16273 ft | 422 kts | 118° |
| 2026-05-05 13:39 | 33.55187 | -118.18380 | 16715 ft | 425 kts | 118° |
| 2026-05-05 13:39 | 33.53820 | -118.15223 | 17171 ft | 428 kts | 118° |
| 2026-05-05 13:39 | 33.52449 | -118.12046 | 17617 ft | 431 kts | 118° |
| 2026-05-05 13:39 | 33.51072 | -118.08844 | 18072 ft | 433 kts | 118° |
| 2026-05-05 13:40 | 33.49688 | -118.05619 | 18507 ft | 436 kts | 118° |
| 2026-05-05 13:40 | 33.48293 | -118.02389 | 18948 ft | 437 kts | 120° |
| 2026-05-05 13:40 | 33.46748 | -117.99518 | 19338 ft | 438 kts | 129° |
| 2026-05-05 13:40 | 33.44728 | -117.96798 | 19737 ft | 438 kts | 138° |
| 2026-05-05 13:41 | 33.42455 | -117.94369 | 20130 ft | 439 kts | 141° |
| 2026-05-05 13:41 | 33.40158 | -117.91943 | 20510 ft | 442 kts | 141° |
| 2026-05-05 13:41 | 33.37848 | -117.89499 | 20882 ft | 445 kts | 141° |
| 2026-05-05 13:41 | 33.35524 | -117.87034 | 21274 ft | 447 kts | 141° |
| 2026-05-05 13:42 | 33.33193 | -117.84559 | 21658 ft | 449 kts | 141° |
| 2026-05-05 13:42 | 33.30854 | -117.82076 | 22035 ft | 451 kts | 141° |
| 2026-05-05 13:42 | 33.28497 | -117.79580 | 22418 ft | 453 kts | 141° |
| 2026-05-05 13:42 | 33.26131 | -117.77080 | 22789 ft | 456 kts | 141° |
| 2026-05-05 13:43 | 33.23750 | -117.74566 | 23160 ft | 458 kts | 141° |
| 2026-05-05 13:43 | 33.21359 | -117.72044 | 23517 ft | 460 kts | 141° |
| 2026-05-05 13:43 | 33.18998 | -117.69444 | 23805 ft | 464 kts | 136° |
| 2026-05-05 13:43 | 33.16939 | -117.66450 | 24067 ft | 470 kts | 127° |
| 2026-05-05 13:44 | 33.15277 | -117.63055 | 24316 ft | 477 kts | 118° |
| 2026-05-05 13:44 | 33.14048 | -117.59364 | 24566 ft | 482 kts | 112° |
| 2026-05-05 13:44 | 33.12937 | -117.55576 | 24841 ft | 485 kts | 112° |
| 2026-05-05 13:44 | 33.11821 | -117.51778 | 25091 ft | 487 kts | 112° |
| 2026-05-05 13:45 | 33.10693 | -117.47947 | 25331 ft | 490 kts | 112° |
| 2026-05-05 13:45 | 33.09560 | -117.44110 | 25567 ft | 492 kts | 113° |
| 2026-05-05 13:45 | 33.08432 | -117.40297 | 25805 ft | 495 kts | 113° |
| 2026-05-05 13:45 | 33.07285 | -117.36430 | 26136 ft | 495 kts | 113° |
| 2026-05-05 13:46 | 33.06135 | -117.32557 | 26379 ft | 497 kts | 114° |
| 2026-05-05 13:46 | 33.04979 | -117.28663 | 26639 ft | 499 kts | 114° |
| 2026-05-05 13:46 | 33.03822 | -117.24761 | 26960 ft | 500 kts | 114° |
| 2026-05-05 13:46 | 33.02661 | -117.20855 | 27259 ft | 500 kts | 114° |
| 2026-05-05 13:47 | 33.01498 | -117.16946 | 27538 ft | 501 kts | 115° |
| 2026-05-05 13:47 | 33.00332 | -117.13036 | 27871 ft | 501 kts | 115° |
| 2026-05-05 13:47 | 32.99161 | -117.09123 | 28193 ft | 501 kts | 115° |
| 2026-05-05 13:47 | 32.97988 | -117.05207 | 28495 ft | 502 kts | 115° |
| 2026-05-05 13:48 | 32.96818 | -117.01294 | 28794 ft | 503 kts | 116° |
| 2026-05-05 13:48 | 32.95640 | -116.97367 | 29097 ft | 503 kts | 116° |
| 2026-05-05 13:48 | 32.94460 | -116.93446 | 29391 ft | 504 kts | 116° |
| 2026-05-05 13:48 | 32.93276 | -116.89516 | 29682 ft | 504 kts | 116° |
| 2026-05-05 13:49 | 32.92094 | -116.85588 | 29947 ft | 505 kts | 117° |
| 2026-05-05 13:49 | 32.90911 | -116.81655 | 30241 ft | 505 kts | 117° |
| 2026-05-05 13:49 | 32.89729 | -116.77725 | 30491 ft | 505 kts | 117° |
| 2026-05-05 13:49 | 32.88543 | -116.73791 | 30732 ft | 505 kts | 117° |
| 2026-05-05 13:50 | 32.87354 | -116.69859 | 30952 ft | 506 kts | 117° |
| 2026-05-05 13:50 | 32.86156 | -116.65925 | 31194 ft | 506 kts | 118° |
| 2026-05-05 13:50 | 32.84954 | -116.61980 | 31419 ft | 507 kts | 118° |
| 2026-05-05 13:50 | 32.83756 | -116.58042 | 31650 ft | 508 kts | 118° |
| 2026-05-05 13:51 | 32.82554 | -116.54092 | 31888 ft | 508 kts | 119° |
| 2026-05-05 13:51 | 32.81348 | -116.50142 | 32076 ft | 508 kts | 120° |
| 2026-05-05 13:51 | 32.79939 | -116.46341 | 32263 ft | 498 kts | 128° |
| 2026-05-05 13:51 | 32.78345 | -116.42676 | 32424 ft | 500 kts | 128° |
| 2026-05-05 13:52 | 32.76745 | -116.38998 | 32609 ft | 502 kts | 128° |
| 2026-05-05 13:52 | 32.75142 | -116.35311 | 32837 ft | 503 kts | 128° |
| 2026-05-05 13:52 | 32.73540 | -116.31619 | 33051 ft | 503 kts | 128° |
| 2026-05-05 13:52 | 32.71935 | -116.27922 | 33284 ft | 504 kts | 128° |
| 2026-05-05 13:53 | 32.70330 | -116.24230 | 33519 ft | 504 kts | 130° |
| 2026-05-05 13:53 | 32.68721 | -116.20540 | 33775 ft | 503 kts | 130° |
| 2026-05-05 13:53 | 32.67107 | -116.16847 | 34006 ft | 504 kts | 130° |
| 2026-05-05 13:53 | 32.65516 | -116.13211 | 34182 ft | 503 kts | 130° |
| 2026-05-05 13:54 | 32.63902 | -116.09523 | 34300 ft | 503 kts | 130° |
| 2026-05-05 13:54 | 32.62881 | -116.07162 | 34405 ft | 505 kts | 129° |
| 2026-05-05 13:54 | 32.61282 | -116.03459 | 34545 ft | 505 kts | 130° |
| 2026-05-05 13:54 | 32.59662 | -115.99766 | 34691 ft | 504 kts | 130° |
| 2026-05-05 13:55 | 32.58031 | -115.96086 | 34851 ft | 504 kts | 130° |
| 2026-05-05 13:55 | 32.56394 | -115.92407 | 34954 ft | 504 kts | 130° |
| 2026-05-05 13:55 | 32.53134 | -115.85052 | 34973 ft | 503 kts | 130° |
| 2026-05-05 13:56 | 32.49896 | -115.77706 | 34973 ft | 503 kts | 130° |
| 2026-05-05 13:56 | 32.46652 | -115.70359 | 34958 ft | 503 kts | 131° |
| 2026-05-05 13:57 | 32.43704 | -115.63707 | 34942 ft | 504 kts | 131° |
| 2026-05-05 13:57 | 32.40687 | -115.56912 | 34969 ft | 505 kts | 131° |
| 2026-05-05 13:58 | 32.37413 | -115.49550 | 34966 ft | 506 kts | 131° |
| 2026-05-05 13:58 | 32.34136 | -115.42196 | 34969 ft | 505 kts | 131° |
| 2026-05-05 13:59 | 32.29773 | -115.32434 | 34893 ft | 505 kts | 131° |
| 2026-05-05 14:00 | 32.25377 | -115.22643 | 34965 ft | 508 kts | 131° |
| 2026-05-05 14:00 | 32.21503 | -115.14016 | 34973 ft | 508 kts | 131° |
| 2026-05-05 14:01 | 32.18213 | -115.06697 | 34976 ft | 508 kts | 131° |
| 2026-05-05 14:01 | 32.14895 | -114.99337 | 34931 ft | 507 kts | 131° |
| 2026-05-05 14:02 | 32.11588 | -114.92017 | 34958 ft | 505 kts | 131° |
| 2026-05-05 14:02 | 32.08274 | -114.84711 | 34969 ft | 505 kts | 131° |
| 2026-05-05 14:03 | 32.04959 | -114.77430 | 34969 ft | 504 kts | 131° |
| 2026-05-05 14:03 | 32.01652 | -114.70146 | 34970 ft | 504 kts | 131° |
| 2026-05-05 14:04 | 31.98347 | -114.62872 | 34972 ft | 504 kts | 131° |
| 2026-05-05 14:04 | 31.95038 | -114.55598 | 34920 ft | 504 kts | 131° |
| 2026-05-05 14:05 | 31.91709 | -114.48337 | 34936 ft | 504 kts | 131° |
| 2026-05-05 14:05 | 31.88376 | -114.41069 | 34944 ft | 504 kts | 131° |
| 2026-05-05 14:06 | 31.85046 | -114.33804 | 34950 ft | 505 kts | 131° |
| 2026-05-05 14:06 | 31.81704 | -114.26544 | 34955 ft | 505 kts | 131° |
| 2026-05-05 14:07 | 31.78350 | -114.19289 | 34942 ft | 505 kts | 131° |
| 2026-05-05 14:07 | 31.74987 | -114.12027 | 34954 ft | 506 kts | 131° |
| 2026-05-05 14:08 | 31.71631 | -114.04765 | 34953 ft | 506 kts | 131° |
| 2026-05-05 14:08 | 31.68297 | -113.97550 | 34960 ft | 505 kts | 131° |
| 2026-05-05 14:09 | 31.64936 | -113.90310 | 34969 ft | 505 kts | 131° |
| 2026-05-05 14:09 | 31.61570 | -113.83085 | 34919 ft | 504 kts | 131° |
| 2026-05-05 14:10 | 31.58211 | -113.75881 | 34946 ft | 503 kts | 131° |
| 2026-05-05 14:10 | 31.54848 | -113.68697 | 34960 ft | 502 kts | 132° |
| 2026-05-05 14:11 | 31.52056 | -113.62730 | 34963 ft | 502 kts | 132° |
| 2026-05-05 14:11 | 31.48694 | -113.55554 | 34964 ft | 502 kts | 132° |
| 2026-05-05 14:12 | 31.45328 | -113.48390 | 34968 ft | 502 kts | 132° |
| 2026-05-05 14:12 | 31.41961 | -113.41239 | 34948 ft | 501 kts | 131° |
| 2026-05-05 14:13 | 31.38595 | -113.34102 | 34985 ft | 500 kts | 133° |
| 2026-05-05 14:13 | 31.36716 | -113.30764 | 34989 ft | 482 kts | 142° |
| 2026-05-05 14:13 | 31.34521 | -113.27905 | 34980 ft | 464 kts | 151° |
| 2026-05-05 14:14 | 31.29722 | -113.22994 | 34985 ft | 458 kts | 153° |
| 2026-05-05 14:14 | 31.24920 | -113.18112 | 34979 ft | 458 kts | 153° |
| 2026-05-05 14:15 | 31.20124 | -113.13224 | 34968 ft | 458 kts | 153° |
| 2026-05-05 14:15 | 31.15328 | -113.08334 | 34948 ft | 457 kts | 153° |
| 2026-05-05 14:16 | 31.10540 | -113.03463 | 34962 ft | 456 kts | 153° |
| 2026-05-05 14:16 | 31.05757 | -112.98618 | 34967 ft | 455 kts | 153° |
| 2026-05-05 14:17 | 31.00978 | -112.93788 | 34938 ft | 454 kts | 153° |
| 2026-05-05 14:17 | 30.96204 | -112.88967 | 34947 ft | 454 kts | 153° |
| 2026-05-05 14:18 | 30.91431 | -112.84153 | 34959 ft | 454 kts | 153° |
| 2026-05-05 14:18 | 30.86661 | -112.79341 | 34958 ft | 454 kts | 153° |
| 2026-05-05 14:19 | 30.81892 | -112.74534 | 34948 ft | 454 kts | 153° |
| 2026-05-05 14:19 | 30.77121 | -112.69729 | 34931 ft | 454 kts | 153° |
| 2026-05-05 14:20 | 30.72343 | -112.64927 | 34946 ft | 454 kts | 154° |
| 2026-05-05 14:20 | 30.67563 | -112.60136 | 34960 ft | 454 kts | 154° |
| 2026-05-05 14:21 | 30.62778 | -112.55351 | 34961 ft | 454 kts | 154° |
| 2026-05-05 14:21 | 30.57993 | -112.50571 | 34929 ft | 453 kts | 154° |
| 2026-05-05 14:22 | 30.53206 | -112.45788 | 34969 ft | 455 kts | 153° |
| 2026-05-05 14:22 | 30.48414 | -112.41008 | 34982 ft | 454 kts | 154° |
| 2026-05-05 14:23 | 30.43624 | -112.36240 | 34985 ft | 454 kts | 154° |
| 2026-05-05 14:23 | 30.38841 | -112.31485 | 34986 ft | 453 kts | 154° |
| 2026-05-05 14:24 | 30.34057 | -112.26733 | 34955 ft | 453 kts | 154° |
| 2026-05-05 14:24 | 30.29278 | -112.21984 | 34975 ft | 453 kts | 153° |
| 2026-05-05 14:25 | 30.24535 | -112.17273 | 34977 ft | 452 kts | 154° |
| 2026-05-05 14:25 | 30.19758 | -112.12541 | 34965 ft | 452 kts | 154° |
| 2026-05-05 14:26 | 30.14981 | -112.07826 | 34972 ft | 451 kts | 154° |
| 2026-05-05 14:26 | 30.10186 | -112.03110 | 34974 ft | 454 kts | 154° |
| 2026-05-05 14:27 | 30.05377 | -111.98370 | 34982 ft | 454 kts | 154° |
| 2026-05-05 14:27 | 30.00540 | -111.93603 | 34989 ft | 454 kts | 154° |
| 2026-05-05 14:28 | 29.95731 | -111.88872 | 34984 ft | 454 kts | 154° |
| 2026-05-05 14:28 | 29.90918 | -111.84151 | 34942 ft | 454 kts | 154° |
| 2026-05-05 14:29 | 29.86100 | -111.79431 | 34943 ft | 455 kts | 154° |
| 2026-05-05 14:29 | 29.81273 | -111.74697 | 34943 ft | 456 kts | 154° |
| 2026-05-05 14:30 | 29.76437 | -111.69967 | 34953 ft | 457 kts | 154° |
| 2026-05-05 14:30 | 29.71585 | -111.65239 | 34961 ft | 457 kts | 154° |
| 2026-05-05 14:31 | 29.66729 | -111.60503 | 34963 ft | 459 kts | 154° |
| 2026-05-05 14:31 | 29.61851 | -111.55748 | 34979 ft | 460 kts | 154° |
| 2026-05-05 14:32 | 29.56974 | -111.50997 | 34992 ft | 460 kts | 154° |
| 2026-05-05 14:32 | 29.52137 | -111.46285 | 34989 ft | 459 kts | 154° |
| 2026-05-05 14:33 | 29.47268 | -111.41556 | 34988 ft | 458 kts | 154° |
| 2026-05-05 14:33 | 29.42399 | -111.36848 | 34950 ft | 458 kts | 154° |
| 2026-05-05 14:34 | 29.37529 | -111.32141 | 34964 ft | 458 kts | 154° |
| 2026-05-05 14:34 | 29.32653 | -111.27435 | 34979 ft | 458 kts | 154° |
| 2026-05-05 14:35 | 29.27754 | -111.22706 | 34987 ft | 457 kts | 154° |
| 2026-05-05 14:35 | 29.22883 | -111.18015 | 34994 ft | 457 kts | 154° |
| 2026-05-05 14:36 | 29.18008 | -111.13334 | 34955 ft | 458 kts | 155° |
| 2026-05-05 14:36 | 29.13127 | -111.08656 | 34973 ft | 458 kts | 155° |
| 2026-05-05 14:37 | 29.08333 | -111.03791 | 34984 ft | 471 kts | 148° |
| 2026-05-05 14:37 | 29.03796 | -110.98375 | 34993 ft | 472 kts | 148° |
| 2026-05-05 14:38 | 28.99260 | -110.92949 | 34996 ft | 472 kts | 148° |
| 2026-05-05 14:38 | 28.94715 | -110.87544 | 34993 ft | 472 kts | 148° |
| 2026-05-05 14:39 | 28.90163 | -110.82153 | 35003 ft | 472 kts | 148° |
| 2026-05-05 14:39 | 28.85631 | -110.76793 | 34997 ft | 472 kts | 148° |
| 2026-05-05 14:40 | 28.81042 | -110.71365 | 34992 ft | 472 kts | 148° |
| 2026-05-05 14:40 | 28.76508 | -110.66010 | 35001 ft | 473 kts | 148° |
| 2026-05-05 14:41 | 28.71927 | -110.60632 | 34969 ft | 473 kts | 148° |
| 2026-05-05 14:41 | 28.67323 | -110.55273 | 34972 ft | 473 kts | 148° |
| 2026-05-05 14:42 | 28.62712 | -110.49918 | 34979 ft | 474 kts | 148° |
| 2026-05-05 14:42 | 28.58096 | -110.44564 | 34964 ft | 474 kts | 148° |
| 2026-05-05 14:43 | 28.53476 | -110.39213 | 34964 ft | 475 kts | 148° |
| 2026-05-05 14:43 | 28.48846 | -110.33847 | 34947 ft | 475 kts | 148° |
| 2026-05-05 14:44 | 28.44179 | -110.28443 | 34956 ft | 476 kts | 148° |
| 2026-05-05 14:44 | 28.39535 | -110.23073 | 34964 ft | 476 kts | 148° |
| 2026-05-05 14:45 | 28.34914 | -110.17752 | 34974 ft | 477 kts | 148° |
| 2026-05-05 14:45 | 28.30255 | -110.12391 | 34953 ft | 477 kts | 148° |
| 2026-05-05 14:46 | 28.25587 | -110.07032 | 34974 ft | 479 kts | 147° |
| 2026-05-05 14:46 | 28.20906 | -110.01664 | 34972 ft | 478 kts | 147° |
| 2026-05-05 14:47 | 28.16227 | -109.96286 | 34979 ft | 479 kts | 147° |
| 2026-05-05 14:47 | 28.11572 | -109.90869 | 34982 ft | 480 kts | 147° |
| 2026-05-05 14:48 | 28.06949 | -109.85418 | 34982 ft | 480 kts | 147° |
| 2026-05-05 14:48 | 28.02327 | -109.79978 | 34949 ft | 479 kts | 146° |
| 2026-05-05 14:49 | 27.97684 | -109.74552 | 34956 ft | 480 kts | 146° |
| 2026-05-05 14:49 | 27.93038 | -109.69137 | 34960 ft | 480 kts | 146° |
| 2026-05-05 14:50 | 27.88383 | -109.63708 | 34968 ft | 481 kts | 146° |
| 2026-05-05 14:50 | 27.83722 | -109.58277 | 34975 ft | 481 kts | 146° |
| 2026-05-05 14:51 | 27.79060 | -109.52859 | 34950 ft | 481 kts | 145° |
| 2026-05-05 14:51 | 27.74394 | -109.47449 | 34978 ft | 481 kts | 145° |
| 2026-05-05 14:52 | 27.70516 | -109.42955 | 34979 ft | 481 kts | 145° |
| 2026-05-05 14:52 | 27.65855 | -109.37553 | 34988 ft | 480 kts | 145° |
| 2026-05-05 14:53 | 27.61198 | -109.32150 | 34991 ft | 480 kts | 146° |
| 2026-05-05 14:53 | 27.56531 | -109.26764 | 34967 ft | 479 kts | 146° |
| 2026-05-05 14:54 | 27.51858 | -109.21433 | 35006 ft | 477 kts | 146° |
| 2026-05-05 14:54 | 27.47189 | -109.16136 | 35006 ft | 476 kts | 146° |
| 2026-05-05 14:55 | 27.42531 | -109.10856 | 35004 ft | 475 kts | 146° |
| 2026-05-05 14:55 | 27.37887 | -109.05576 | 35006 ft | 474 kts | 146° |
| 2026-05-05 14:56 | 27.33246 | -109.00314 | 34982 ft | 473 kts | 146° |
| 2026-05-05 14:56 | 27.28610 | -108.95068 | 35013 ft | 472 kts | 146° |
| 2026-05-05 14:57 | 27.23992 | -108.89841 | 35024 ft | 471 kts | 146° |
| 2026-05-05 14:57 | 27.19382 | -108.84629 | 35026 ft | 470 kts | 146° |
| 2026-05-05 14:58 | 27.14776 | -108.79426 | 35025 ft | 469 kts | 146° |
| 2026-05-05 14:58 | 27.10162 | -108.74233 | 35013 ft | 469 kts | 146° |
| 2026-05-05 14:59 | 27.05561 | -108.69061 | 35006 ft | 467 kts | 145° |
| 2026-05-05 14:59 | 27.00976 | -108.63913 | 34999 ft | 467 kts | 145° |
| 2026-05-05 15:00 | 26.97123 | -108.59596 | 35011 ft | 467 kts | 145° |
| 2026-05-05 15:00 | 26.91789 | -108.53607 | 35022 ft | 466 kts | 145° |
| 2026-05-05 15:01 | 26.87211 | -108.48475 | 35020 ft | 465 kts | 145° |
| 2026-05-05 15:01 | 26.82628 | -108.43348 | 34986 ft | 465 kts | 145° |
| 2026-05-05 15:02 | 26.78050 | -108.38231 | 34982 ft | 465 kts | 144° |
| 2026-05-05 15:02 | 26.73469 | -108.33115 | 34994 ft | 465 kts | 144° |
| 2026-05-05 15:03 | 26.68883 | -108.28001 | 34996 ft | 465 kts | 145° |
| 2026-05-05 15:03 | 26.64298 | -108.22897 | 35001 ft | 465 kts | 145° |
| 2026-05-05 15:04 | 26.59708 | -108.17789 | 34995 ft | 467 kts | 143° |
| 2026-05-05 15:04 | 26.57604 | -108.14962 | 34994 ft | 478 kts | 135° |
| 2026-05-05 15:04 | 26.55669 | -108.11935 | 35007 ft | 479 kts | 135° |
| 2026-05-05 15:05 | 26.49870 | -108.02842 | 35010 ft | 479 kts | 135° |
| 2026-05-05 15:06 | 26.45986 | -107.96796 | 35025 ft | 479 kts | 135° |
| 2026-05-05 15:06 | 26.42098 | -107.90760 | 35025 ft | 479 kts | 135° |
| 2026-05-05 15:07 | 26.38210 | -107.84725 | 35028 ft | 479 kts | 135° |
| 2026-05-05 15:07 | 26.34315 | -107.78687 | 35027 ft | 479 kts | 135° |
| 2026-05-05 15:08 | 26.30425 | -107.72658 | 34997 ft | 479 kts | 134° |
| 2026-05-05 15:08 | 26.26536 | -107.66628 | 35007 ft | 479 kts | 134° |
| 2026-05-05 15:09 | 26.22635 | -107.60596 | 35012 ft | 479 kts | 135° |
| 2026-05-05 15:09 | 26.18732 | -107.54579 | 35018 ft | 479 kts | 134° |
| 2026-05-05 15:10 | 26.14826 | -107.48569 | 35016 ft | 479 kts | 135° |
| 2026-05-05 15:10 | 26.10919 | -107.42557 | 35026 ft | 479 kts | 134° |
| 2026-05-05 15:11 | 26.07014 | -107.36536 | 35024 ft | 482 kts | 134° |
| 2026-05-05 15:11 | 26.03061 | -107.30480 | 35048 ft | 485 kts | 134° |
| 2026-05-05 15:12 | 25.99099 | -107.24409 | 35046 ft | 484 kts | 134° |
| 2026-05-05 15:12 | 25.95142 | -107.18364 | 35065 ft | 484 kts | 134° |
| 2026-05-05 15:13 | 25.91183 | -107.12311 | 35052 ft | 484 kts | 134° |
| 2026-05-05 15:13 | 25.87228 | -107.06264 | 35058 ft | 484 kts | 134° |
| 2026-05-05 15:14 | 25.83269 | -107.00212 | 35041 ft | 485 kts | 133° |
| 2026-05-05 15:14 | 25.79312 | -106.94152 | 35052 ft | 485 kts | 133° |
| 2026-05-05 15:15 | 25.75358 | -106.88089 | 35074 ft | 485 kts | 133° |
| 2026-05-05 15:15 | 25.71395 | -106.82039 | 35077 ft | 485 kts | 133° |
| 2026-05-05 15:16 | 25.67427 | -106.75994 | 35096 ft | 485 kts | 133° |
| 2026-05-05 15:16 | 25.63450 | -106.69933 | 35082 ft | 487 kts | 133° |
| 2026-05-05 15:17 | 25.59478 | -106.63876 | 35059 ft | 486 kts | 132° |
| 2026-05-05 15:17 | 25.55497 | -106.57833 | 35092 ft | 486 kts | 132° |
| 2026-05-05 15:18 | 25.51506 | -106.51790 | 35086 ft | 486 kts | 132° |
| 2026-05-05 15:18 | 25.47518 | -106.45754 | 35097 ft | 486 kts | 132° |
| 2026-05-05 15:19 | 25.43534 | -106.39714 | 35098 ft | 485 kts | 132° |
| 2026-05-05 15:19 | 25.39531 | -106.33706 | 35103 ft | 485 kts | 133° |
| 2026-05-05 15:20 | 25.35477 | -106.27749 | 35088 ft | 485 kts | 133° |
| 2026-05-05 15:20 | 25.31405 | -106.21797 | 35068 ft | 485 kts | 133° |
| 2026-05-05 15:21 | 25.27345 | -106.15828 | 35080 ft | 486 kts | 132° |
| 2026-05-05 15:21 | 25.23288 | -106.09857 | 35073 ft | 486 kts | 133° |
| 2026-05-05 15:22 | 25.19225 | -106.03896 | 35070 ft | 485 kts | 133° |
| 2026-05-05 15:22 | 25.15160 | -105.97942 | 35080 ft | 486 kts | 133° |
| 2026-05-05 15:23 | 25.11098 | -105.91980 | 35081 ft | 486 kts | 133° |
| 2026-05-05 15:23 | 25.07027 | -105.86025 | 35068 ft | 486 kts | 133° |
| 2026-05-05 15:24 | 25.02959 | -105.80088 | 35091 ft | 484 kts | 133° |
| 2026-05-05 15:24 | 24.98900 | -105.74163 | 35084 ft | 484 kts | 133° |
| 2026-05-05 15:25 | 24.94852 | -105.68249 | 35082 ft | 483 kts | 133° |
| 2026-05-05 15:25 | 24.90794 | -105.62350 | 35079 ft | 483 kts | 133° |
| 2026-05-05 15:26 | 24.86737 | -105.56461 | 35080 ft | 483 kts | 133° |
| 2026-05-05 15:26 | 24.82690 | -105.50576 | 35081 ft | 482 kts | 133° |
| 2026-05-05 15:27 | 24.78640 | -105.44693 | 35077 ft | 481 kts | 133° |
| 2026-05-05 15:27 | 24.74595 | -105.38833 | 35074 ft | 480 kts | 133° |
| 2026-05-05 15:28 | 24.70548 | -105.32975 | 35074 ft | 481 kts | 133° |
| 2026-05-05 15:28 | 24.66504 | -105.27129 | 35068 ft | 481 kts | 133° |
| 2026-05-05 15:29 | 24.62455 | -105.21284 | 35051 ft | 481 kts | 133° |
| 2026-05-05 15:29 | 24.58400 | -105.15441 | 35063 ft | 481 kts | 133° |
| 2026-05-05 15:30 | 24.54336 | -105.09598 | 35055 ft | 481 kts | 133° |
| 2026-05-05 15:30 | 24.50275 | -105.03770 | 35057 ft | 480 kts | 133° |
| 2026-05-05 15:31 | 24.46223 | -104.97951 | 35061 ft | 480 kts | 133° |
| 2026-05-05 15:31 | 24.42163 | -104.92134 | 35047 ft | 480 kts | 133° |
| 2026-05-05 15:32 | 24.38108 | -104.86323 | 35054 ft | 480 kts | 132° |
| 2026-05-05 15:32 | 24.34711 | -104.81453 | 35079 ft | 479 kts | 132° |
| 2026-05-05 15:33 | 24.30651 | -104.75651 | 35134 ft | 480 kts | 133° |
| 2026-05-05 15:33 | 24.26591 | -104.69847 | 35177 ft | 480 kts | 132° |
| 2026-05-05 15:34 | 24.22516 | -104.64046 | 35242 ft | 480 kts | 132° |
| 2026-05-05 15:34 | 24.18441 | -104.58260 | 35292 ft | 480 kts | 132° |
| 2026-05-05 15:35 | 24.14367 | -104.52470 | 35290 ft | 480 kts | 132° |
| 2026-05-05 15:35 | 24.10348 | -104.46639 | 35292 ft | 480 kts | 131° |
| 2026-05-05 15:36 | 24.06402 | -104.40737 | 35265 ft | 480 kts | 131° |
| 2026-05-05 15:36 | 24.02458 | -104.34834 | 35199 ft | 480 kts | 131° |
| 2026-05-05 15:37 | 23.98493 | -104.28959 | 35138 ft | 480 kts | 131° |
| 2026-05-05 15:37 | 23.94518 | -104.23095 | 35078 ft | 480 kts | 131° |
| 2026-05-05 15:38 | 23.90541 | -104.17241 | 35050 ft | 480 kts | 131° |
| 2026-05-05 15:38 | 23.86566 | -104.11386 | 35052 ft | 479 kts | 131° |
| 2026-05-05 15:39 | 23.82592 | -104.05539 | 35057 ft | 479 kts | 131° |
| 2026-05-05 15:39 | 23.78617 | -103.99693 | 35052 ft | 479 kts | 131° |
| 2026-05-05 15:40 | 23.74640 | -103.93856 | 35037 ft | 479 kts | 130° |
| 2026-05-05 15:40 | 23.70666 | -103.88026 | 35054 ft | 478 kts | 131° |
| 2026-05-05 15:41 | 23.66700 | -103.82205 | 35059 ft | 478 kts | 131° |
| 2026-05-05 15:41 | 23.62738 | -103.76383 | 35067 ft | 477 kts | 131° |
| 2026-05-05 15:42 | 23.58769 | -103.70582 | 35063 ft | 477 kts | 131° |
| 2026-05-05 15:42 | 23.54787 | -103.64791 | 35059 ft | 477 kts | 131° |
| 2026-05-05 15:43 | 23.50804 | -103.59004 | 35061 ft | 477 kts | 131° |
| 2026-05-05 15:43 | 23.46833 | -103.53219 | 35047 ft | 477 kts | 131° |
| 2026-05-05 15:44 | 23.42864 | -103.47441 | 35060 ft | 476 kts | 130° |
| 2026-05-05 15:44 | 23.38895 | -103.41672 | 35068 ft | 476 kts | 130° |
| 2026-05-05 15:45 | 23.34929 | -103.35906 | 35070 ft | 476 kts | 130° |
| 2026-05-05 15:45 | 23.30962 | -103.30148 | 35063 ft | 475 kts | 130° |
| 2026-05-05 15:46 | 23.26988 | -103.24398 | 35076 ft | 475 kts | 130° |
| 2026-05-05 15:46 | 23.23037 | -103.18686 | 35063 ft | 475 kts | 130° |
| 2026-05-05 15:47 | 23.19060 | -103.12947 | 35058 ft | 475 kts | 130° |
| 2026-05-05 15:47 | 23.15087 | -103.07206 | 35063 ft | 475 kts | 130° |
| 2026-05-05 15:48 | 23.11115 | -103.01458 | 35063 ft | 475 kts | 130° |
| 2026-05-05 15:48 | 23.07136 | -102.95724 | 35107 ft | 475 kts | 130° |
| 2026-05-05 15:49 | 23.03144 | -102.89988 | 35147 ft | 476 kts | 130° |
| 2026-05-05 15:49 | 22.99148 | -102.84264 | 35189 ft | 476 kts | 130° |
| 2026-05-05 15:50 | 22.95156 | -102.78538 | 35231 ft | 476 kts | 130° |
| 2026-05-05 15:50 | 22.91166 | -102.72810 | 35239 ft | 475 kts | 130° |
| 2026-05-05 15:51 | 22.86559 | -102.67784 | 35245 ft | 467 kts | 147° |
| 2026-05-05 15:51 | 22.81177 | -102.63880 | 35245 ft | 465 kts | 149° |
| 2026-05-05 15:52 | 22.75783 | -102.60001 | 35204 ft | 465 kts | 149° |
| 2026-05-05 15:52 | 22.70394 | -102.56115 | 35169 ft | 465 kts | 149° |
| 2026-05-05 15:53 | 22.65008 | -102.52239 | 35132 ft | 465 kts | 149° |
| 2026-05-05 15:53 | 22.59619 | -102.48371 | 35095 ft | 464 kts | 149° |
| 2026-05-05 15:54 | 22.54229 | -102.44507 | 35093 ft | 464 kts | 149° |
| 2026-05-05 15:54 | 22.48849 | -102.40650 | 35090 ft | 463 kts | 149° |
| 2026-05-05 15:55 | 22.43480 | -102.36803 | 35087 ft | 463 kts | 149° |
| 2026-05-05 15:55 | 22.38120 | -102.32962 | 35079 ft | 462 kts | 149° |
| 2026-05-05 15:56 | 22.32753 | -102.29123 | 35083 ft | 462 kts | 149° |
| 2026-05-05 15:56 | 22.27396 | -102.25299 | 35076 ft | 462 kts | 149° |
| 2026-05-05 15:57 | 22.22046 | -102.21472 | 35077 ft | 461 kts | 149° |
| 2026-05-05 15:57 | 22.16695 | -102.17653 | 35078 ft | 461 kts | 149° |
| 2026-05-05 15:58 | 22.11342 | -102.13845 | 35079 ft | 461 kts | 149° |
| 2026-05-05 15:58 | 22.05988 | -102.10048 | 35079 ft | 461 kts | 149° |
| 2026-05-05 15:59 | 22.00638 | -102.06240 | 35068 ft | 460 kts | 149° |
| 2026-05-05 15:59 | 21.95292 | -102.02437 | 35074 ft | 460 kts | 149° |
| 2026-05-05 16:00 | 21.89951 | -101.98647 | 35076 ft | 460 kts | 149° |
| 2026-05-05 16:00 | 21.84608 | -101.94858 | 35078 ft | 460 kts | 149° |
| 2026-05-05 16:01 | 21.79264 | -101.91070 | 35073 ft | 460 kts | 149° |
| 2026-05-05 16:01 | 21.73950 | -101.87318 | 35074 ft | 460 kts | 149° |
| 2026-05-05 16:02 | 21.68602 | -101.83546 | 35067 ft | 459 kts | 149° |
| 2026-05-05 16:02 | 21.63266 | -101.79773 | 35070 ft | 459 kts | 149° |
| 2026-05-05 16:03 | 21.57993 | -101.75888 | 35064 ft | 461 kts | 142° |
| 2026-05-05 16:03 | 21.53774 | -101.70689 | 35075 ft | 466 kts | 125° |
| 2026-05-05 16:04 | 21.50215 | -101.64875 | 35065 ft | 466 kts | 126° |
| 2026-05-05 16:04 | 21.46631 | -101.59068 | 35064 ft | 467 kts | 126° |
| 2026-05-05 16:05 | 21.43044 | -101.53258 | 35064 ft | 467 kts | 126° |
| 2026-05-05 16:05 | 21.39456 | -101.47446 | 35064 ft | 467 kts | 126° |
| 2026-05-05 16:06 | 21.35869 | -101.41640 | 35061 ft | 466 kts | 126° |
| 2026-05-05 16:06 | 21.32283 | -101.35836 | 35066 ft | 466 kts | 126° |
| 2026-05-05 16:07 | 21.28694 | -101.30044 | 35059 ft | 466 kts | 126° |
| 2026-05-05 16:07 | 21.25106 | -101.24251 | 35056 ft | 466 kts | 126° |
| 2026-05-05 16:08 | 21.21525 | -101.18469 | 35055 ft | 466 kts | 126° |
| 2026-05-05 16:08 | 21.17931 | -101.12683 | 35054 ft | 466 kts | 126° |
| 2026-05-05 16:09 | 21.14341 | -101.06903 | 35046 ft | 466 kts | 126° |
| 2026-05-05 16:09 | 21.10748 | -101.01127 | 35047 ft | 466 kts | 126° |
| 2026-05-05 16:10 | 21.07145 | -100.95357 | 35040 ft | 466 kts | 126° |
| 2026-05-05 16:10 | 21.03337 | -100.89761 | 35042 ft | 465 kts | 129° |
| 2026-05-05 16:11 | 20.99341 | -100.84319 | 35037 ft | 464 kts | 130° |
| 2026-05-05 16:12 | 20.91414 | -100.73397 | 35035 ft | 465 kts | 129° |
| 2026-05-05 16:13 | 20.82269 | -100.60596 | 35025 ft | 465 kts | 129° |
| 2026-05-05 16:13 | 20.78332 | -100.55122 | 35026 ft | 463 kts | 130° |
| 2026-05-05 16:14 | 20.70487 | -100.44225 | 35025 ft | 462 kts | 129° |
| 2026-05-05 16:15 | 20.62650 | -100.33370 | 35030 ft | 461 kts | 130° |
| 2026-05-05 16:16 | 20.58763 | -100.27981 | 35391 ft | 461 kts | 129° |
| 2026-05-05 16:16 | 20.54848 | -100.22566 | 35394 ft | 461 kts | 129° |
| 2026-05-05 16:17 | 20.48968 | -100.14436 | 35328 ft | 461 kts | 129° |
| 2026-05-05 16:18 | 20.45037 | -100.08989 | 34818 ft | 460 kts | 129° |
| 2026-05-05 16:18 | 20.43110 | -100.06324 | 34553 ft | 460 kts | 129° |
| 2026-05-05 16:18 | 20.39152 | -100.00875 | 32658 ft | 470 kts | 129° |
| 2026-05-05 16:19 | 20.37138 | -99.98109 | 31588 ft | 475 kts | 129° |
| 2026-05-05 16:19 | 20.35103 | -99.95310 | 30650 ft | 480 kts | 129° |
| 2026-05-05 16:19 | 20.30963 | -99.89605 | 28394 ft | 490 kts | 128° |
| 2026-05-05 16:20 | 20.26791 | -99.83866 | 26461 ft | 488 kts | 128° |
| 2026-05-05 16:20 | 20.22220 | -99.78502 | 24255 ft | 493 kts | 141° |
| 2026-05-05 16:21 | 20.16191 | -99.75139 | 22589 ft | 487 kts | 161° |
| 2026-05-05 16:22 | 20.06411 | -99.73013 | 20481 ft | 468 kts | 168° |
| 2026-05-05 16:22 | 20.00270 | -99.71796 | 20211 ft | 431 kts | 168° |
| 2026-05-05 16:23 | 19.94601 | -99.70680 | 19978 ft | 398 kts | 168° |
| 2026-05-05 16:23 | 19.91929 | -99.70150 | 19865 ft | 383 kts | 168° |
| 2026-05-05 16:23 | 19.86874 | -99.69138 | 19644 ft | 356 kts | 165° |
| 2026-05-05 16:24 | 19.84613 | -99.68252 | 19265 ft | 341 kts | 149° |
| 2026-05-05 16:24 | 19.82748 | -99.66764 | 18754 ft | 332 kts | 133° |
| 2026-05-05 16:24 | 19.80052 | -99.62866 | 17564 ft | 325 kts | 124° |
| 2026-05-05 16:25 | 19.78769 | -99.60908 | 17107 ft | 317 kts | 124° |
| 2026-05-05 16:25 | 19.76411 | -99.57235 | 16812 ft | 291 kts | 123° |
| 2026-05-05 16:25 | 19.75333 | -99.55417 | 16641 ft | 291 kts | 121° |
| 2026-05-05 16:26 | 19.73213 | -99.51757 | 16243 ft | 290 kts | 121° |
| 2026-05-05 16:26 | 19.71098 | -99.48123 | 15869 ft | 289 kts | 122° |
| 2026-05-05 16:27 | 19.70037 | -99.46318 | 15677 ft | 288 kts | 122° |
| 2026-05-05 16:27 | 19.68971 | -99.44513 | 15487 ft | 288 kts | 121° |
| 2026-05-05 16:27 | 19.67910 | -99.42720 | 15315 ft | 287 kts | 121° |
| 2026-05-05 16:27 | 19.66849 | -99.40929 | 15132 ft | 286 kts | 121° |
| 2026-05-05 16:28 | 19.65790 | -99.39141 | 14941 ft | 286 kts | 121° |
| 2026-05-05 16:28 | 19.64735 | -99.37359 | 14750 ft | 285 kts | 121° |
| 2026-05-05 16:28 | 19.63682 | -99.35583 | 14595 ft | 284 kts | 121° |
| 2026-05-05 16:28 | 19.62629 | -99.33813 | 14442 ft | 283 kts | 121° |
| 2026-05-05 16:29 | 19.61582 | -99.32047 | 14291 ft | 281 kts | 121° |
| 2026-05-05 16:29 | 19.60558 | -99.30318 | 14207 ft | 272 kts | 122° |
| 2026-05-05 16:29 | 19.59377 | -99.28780 | 14108 ft | 270 kts | 137° |
| 2026-05-05 16:29 | 19.57889 | -99.27560 | 13797 ft | 270 kts | 142° |
| 2026-05-05 16:30 | 19.56376 | -99.26386 | 13509 ft | 269 kts | 142° |
| 2026-05-05 16:30 | 19.54872 | -99.25219 | 13238 ft | 266 kts | 143° |
| 2026-05-05 16:30 | 19.53268 | -99.24253 | 12963 ft | 266 kts | 161° |
| 2026-05-05 16:30 | 19.51457 | -99.23910 | 12682 ft | 267 kts | 180° |
| 2026-05-05 16:31 | 19.49614 | -99.24180 | 12394 ft | 269 kts | 190° |
| 2026-05-05 16:31 | 19.47779 | -99.24570 | 12098 ft | 269 kts | 191° |
| 2026-05-05 16:31 | 19.45948 | -99.24957 | 11794 ft | 268 kts | 191° |
| 2026-05-05 16:31 | 19.44115 | -99.25281 | 11484 ft | 267 kts | 180° |
| 2026-05-05 16:32 | 19.42293 | -99.25048 | 11204 ft | 264 kts | 161° |
| 2026-05-05 16:32 | 19.40660 | -99.24201 | 10937 ft | 260 kts | 147° |
| 2026-05-05 16:32 | 19.39117 | -99.23201 | 10403 ft | 261 kts | 147° |
| 2026-05-05 16:32 | 19.37599 | -99.22187 | 10030 ft | 255 kts | 140° |
| 2026-05-05 16:33 | 19.36641 | -99.20691 | 9720 ft | 246 kts | 101° |
| 2026-05-05 16:33 | 19.36765 | -99.18937 | 9526 ft | 242 kts | 67° |
| 2026-05-05 16:33 | 19.37517 | -99.17374 | 9421 ft | 230 kts | 59° |
| 2026-05-05 16:33 | 19.38333 | -99.16016 | 9313 ft | 206 kts | 54° |
| 2026-05-05 16:34 | 19.39113 | -99.14843 | 9187 ft | 180 kts | 56° |
| 2026-05-05 16:34 | 19.39768 | -99.13783 | 8887 ft | 166 kts | 55° |
| 2026-05-05 16:34 | 19.40377 | -99.12771 | 8530 ft | 161 kts | 57° |
| 2026-05-05 16:34 | 19.40942 | -99.11740 | 8165 ft | 160 kts | 59° |
| 2026-05-05 16:35 | 19.41510 | -99.10712 | 7844 ft | 162 kts | 58° |
| 2026-05-05 16:35 | 19.42091 | -99.09686 | 7624 ft | 163 kts | 59° |
| 2026-05-05 16:35 | 19.42664 | -99.08650 | 7398 ft | 163 kts | 59° |
| 2026-05-05 16:35 | 19.43227 | -99.07635 | 7304 ft | 146 kts | 58° |
| 2026-05-05 16:36 | 19.43641 | -99.06905 | 7302 ft | 89 kts | 59° |
| 2026-05-05 16:36 | 19.43876 | -99.06486 | 7303 ft | 48 kts | 59° |
| 2026-05-05 16:36 | 19.43966 | -99.06238 | 7301 ft | 28 kts | 85° |
| 2026-05-05 16:36 | 19.43961 | -99.06098 | 7302 ft | 12 kts | 106° |
| 2026-05-05 16:37 | 19.43905 | -99.06100 | 7302 ft | 9 kts | 222° |
| 2026-05-05 16:37 | 19.43874 | -99.06147 | 7302 ft | 7 kts | 239° |
| 2026-05-05 16:37 | 19.43853 | -99.06184 | 7302 ft | 5 kts | 239° |
| 2026-05-05 16:37 | 19.43838 | -99.06211 | 7302 ft | 4 kts | 240° |
| 2026-05-05 16:38 | 19.43823 | -99.06239 | 7302 ft | 4 kts | 240° |
| 2026-05-05 16:38 | 19.43805 | -99.06273 | 7303 ft | 8 kts | 240° |
| 2026-05-05 16:38 | 19.43765 | -99.06346 | 7303 ft | 15 kts | 239° |
| 2026-05-05 16:38 | 19.43704 | -99.06456 | 7303 ft | 17 kts | 239° |
| 2026-05-05 16:39 | 19.43644 | -99.06561 | 7303 ft | 16 kts | 239° |
| 2026-05-05 16:39 | 19.43590 | -99.06655 | 7303 ft | 14 kts | 239° |
| 2026-05-05 16:39 | 19.43520 | -99.06719 | 7302 ft | 13 kts | 208° |
| 2026-05-05 16:39 | 19.43446 | -99.06761 | 7302 ft | 11 kts | 207° |
| 2026-05-05 16:40 | 19.43381 | -99.06796 | 7302 ft | 10 kts | 206° |
| 2026-05-05 16:40 | 19.43321 | -99.06844 | 7302 ft | 12 kts | 229° |
| 2026-05-05 16:40 | 19.43274 | -99.06917 | 7302 ft | 13 kts | 239° |
| 2026-05-05 16:40 | 19.43225 | -99.07007 | 7302 ft | 15 kts | 239° |
| 2026-05-05 16:41 | 19.43190 | -99.07114 | 7302 ft | 16 kts | 256° |
| 2026-05-05 16:41 | 19.43136 | -99.07224 | 7302 ft | 18 kts | 240° |
| 2026-05-05 16:41 | 19.43070 | -99.07343 | 7302 ft | 19 kts | 239° |
| 2026-05-05 16:41 | 19.42998 | -99.07470 | 7302 ft | 21 kts | 240° |
| 2026-05-05 16:42 | 19.42919 | -99.07612 | 7302 ft | 23 kts | 241° |
| 2026-05-05 16:42 | 19.42841 | -99.07763 | 7302 ft | 24 kts | 239° |
| 2026-05-05 16:42 | 19.42764 | -99.07874 | 7302 ft | 15 kts | 203° |
| 2026-05-05 16:42 | 19.42681 | -99.07836 | 7302 ft | 14 kts | 148° |
| 2026-05-05 16:43 | 19.42590 | -99.07780 | 7302 ft | 16 kts | 151° |
| 2026-05-05 16:43 | 19.42498 | -99.07777 | 7302 ft | 5 kts | 215° |
| 2026-05-05 16:43 | 19.42479 | -99.07788 | 7302 ft | 4 kts | 213° |
| 2026-05-05 16:43 | 19.42457 | -99.07804 | 7302 ft | 2 kts | 213° |
| 2026-05-05 16:44 | 19.42456 | -99.07805 | 7302 ft | 0 kts | 213° |